Time;durP1;ratioP1;P1;durP2;ratioP2;P2;SDS_P1;SDS_P2;PMS_P1;PMS_P2;Temp;Humidity;BMP_temperature;BMP_pressure;BME280_temperature;BME280_humidity;BME280_pressure;Samples;Min_cycle;Max_cycle;Signal;HPM_P1;HPM_P2
2023/05/08 00:01:24;;;;;;;11.20;7.72;;;;;;;14.97;72.91;96514.13;5089341;28;20040;-72
2023/05/08 00:03:51;;;;;;;10.63;7.07;;;;;;;14.90;72.22;96511.97;5089594;28;20503;-71
2023/05/08 00:06:19;;;;;;;11.70;7.22;;;;;;;14.88;71.71;96517.81;5089429;28;20051;-71
2023/05/08 00:08:46;;;;;;;11.57;7.60;;;;;;;14.95;73.04;96517.22;5089999;28;20044;-71
2023/05/08 00:11:12;;;;;;;12.55;8.52;;;;;;;14.92;73.95;96517.09;5089556;28;20070;-73
2023/05/08 00:13:40;;;;;;;11.23;7.75;;;;;;;14.90;72.60;96517.44;5089682;28;20043;-73
2023/05/08 00:16:08;;;;;;;13.27;8.07;;;;;;;14.91;72.68;96521.78;5087509;28;20147;-72
2023/05/08 00:18:34;;;;;;;14.00;8.82;;;;;;;14.83;71.38;96523.50;5089629;28;20575;-71
2023/05/08 00:21:01;;;;;;;11.63;8.05;;;;;;;14.82;71.79;96532.84;5090282;28;20098;-71
2023/05/08 00:23:29;;;;;;;12.43;8.15;;;;;;;14.80;71.26;96532.41;5089705;28;20067;-72
2023/05/08 00:25:55;;;;;;;10.57;7.32;;;;;;;14.81;71.58;96525.78;5089978;28;20067;-72
2023/05/08 00:28:22;;;;;;;11.85;8.10;;;;;;;14.85;72.18;96534.13;5090447;28;20059;-73
2023/05/08 00:30:49;;;;;;;11.13;7.95;;;;;;;14.85;72.73;96523.94;5090296;28;20488;-72
2023/05/08 00:33:15;;;;;;;11.88;8.23;;;;;;;14.86;73.30;96532.97;5089537;28;20044;-72
2023/05/08 00:35:42;;;;;;;11.23;7.95;;;;;;;14.88;73.94;96528.78;5091377;28;20048;-72
2023/05/08 00:38:08;;;;;;;11.43;8.23;;;;;;;14.81;73.81;96528.50;5090591;28;20055;-72
2023/05/08 00:40:36;;;;;;;11.05;8.27;;;;;;;14.87;75.04;96531.81;5090430;28;20047;-71
2023/05/08 00:43:03;;;;;;;10.75;7.45;;;;;;;14.82;74.21;96535.59;5090079;28;20086;-72
2023/05/08 00:45:34;;;;;;;11.77;7.75;;;;;;;14.80;73.92;96532.41;5090347;28;20140;-71
2023/05/08 00:48:01;;;;;;;13.10;7.80;;;;;;;14.78;74.14;96529.22;5091104;28;20040;-72
2023/05/08 00:50:28;;;;;;;14.70;9.43;;;;;;;14.66;73.94;96536.59;5090350;28;20406;-72
2023/05/08 00:52:56;;;;;;;13.20;8.60;;;;;;;14.73;74.07;96537.66;5090614;28;20048;-71
2023/05/08 00:55:23;;;;;;;11.00;8.32;;;;;;;14.69;73.67;96538.66;5090640;28;20040;-71
2023/05/08 00:57:52;;;;;;;11.88;8.00;;;;;;;14.70;74.27;96546.53;5083279;28;20491;-71
2023/05/08 01:00:20;;;;;;;11.52;7.95;;;;;;;14.72;74.20;96547.03;5091308;28;20056;-72
2023/05/08 01:02:47;;;;;;;13.13;8.75;;;;;;;14.57;73.37;96544.94;5093590;28;20044;-71
2023/05/08 01:05:13;;;;;;;10.52;7.80;;;;;;;14.41;73.39;96549.41;5094845;28;20055;-71
2023/05/08 01:07:40;;;;;;;16.70;8.95;;;;;;;14.28;73.37;96549.38;5095078;28;20666;-71
2023/05/08 01:10:07;;;;;;;12.13;8.27;;;;;;;14.28;74.50;96549.38;5094529;28;20570;-72
2023/05/08 01:12:47;;;;;;;11.70;8.40;;;;;;;14.22;74.92;96544.44;5092691;28;20410;-71
2023/05/08 01:15:18;;;;;;;12.57;9.25;;;;;;;14.18;74.81;96552.53;5092498;28;20047;-71
2023/05/08 01:17:55;;;;;;;14.25;8.68;;;;;;;14.16;74.78;96551.28;5092805;28;20056;-71
2023/05/08 01:20:32;;;;;;;14.57;8.93;;;;;;;14.13;75.02;96558.19;5092368;28;20059;-71
2023/05/08 01:23:35;;;;;;;15.35;8.82;;;;;;;14.20;74.60;96546.69;5092777;28;20040;-71
2023/05/08 01:26:21;;;;;;;11.10;8.00;;;;;;;14.30;75.75;96547.09;5089406;28;20040;-74
2023/05/08 01:29:24;;;;;;;14.98;9.35;;;;;;;14.23;75.82;96541.34;5092624;28;20044;-72
2023/05/08 01:32:14;;;;;;;12.07;8.27;;;;;;;14.23;75.66;96557.78;5069121;28;20040;-73
2023/05/08 01:34:49;;;;;;;15.85;8.85;;;;;;;14.17;75.44;96550.91;5092324;28;20403;-72
2023/05/08 01:37:21;;;;;;;11.15;8.45;;;;;;;14.08;75.27;96545.50;5092052;28;20051;-73
2023/05/08 01:39:55;;;;;;;12.98;8.88;;;;;;;13.97;76.22;96555.28;5092469;28;20040;-73
2023/05/08 01:42:26;;;;;;;11.73;8.60;;;;;;;14.00;76.23;96554.63;5091979;28;20079;-73
2023/05/08 01:45:00;;;;;;;12.98;9.45;;;;;;;13.92;76.49;96562.88;5092625;28;20125;-72
2023/05/08 01:47:31;;;;;;;11.20;8.35;;;;;;;13.93;76.56;96562.56;5092034;28;20115;-73
2023/05/08 01:50:04;;;;;;;14.48;9.75;;;;;;;13.86;77.32;96564.22;5092643;28;20123;-71
2023/05/08 01:52:35;;;;;;;12.65;9.40;;;;;;;13.73;77.97;96572.38;5091737;28;20066;-71
2023/05/08 01:55:05;;;;;;;15.25;9.48;;;;;;;13.63;78.16;96572.78;5091651;28;20097;-73
2023/05/08 01:57:37;;;;;;;13.02;9.32;;;;;;;13.64;78.12;96579.03;5092031;28;20137;-71
2023/05/08 02:00:06;;;;;;;13.88;9.80;;;;;;;13.47;78.37;96580.75;5091695;28;20101;-71
2023/05/08 02:02:36;;;;;;;12.07;9.07;;;;;;;13.17;75.56;96581.84;5091659;28;20044;-71
2023/05/08 02:05:06;;;;;;;13.43;9.18;;;;;;;13.01;74.65;96587.06;5091872;28;20051;-75
2023/05/08 02:07:36;;;;;;;12.50;9.02;;;;;;;12.90;73.55;96591.28;5091998;28;20406;-71
2023/05/08 02:10:04;;;;;;;12.50;8.60;;;;;;;12.85;73.62;96581.34;5090213;28;20043;-73
2023/05/08 02:12:32;;;;;;;11.68;8.43;;;;;;;12.79;73.39;96585.38;5091588;28;20050;-73
2023/05/08 02:15:00;;;;;;;12.52;8.48;;;;;;;12.78;73.58;96592.75;5091197;28;20051;-70
2023/05/08 02:17:29;;;;;;;14.18;8.45;;;;;;;12.64;74.71;96592.16;5088638;28;20055;-72
2023/05/08 02:19:59;;;;;;;13.27;8.70;;;;;;;12.60;73.94;96593.94;5083849;28;20062;-72
2023/05/08 02:22:26;;;;;;;11.52;8.82;;;;;;;12.43;73.97;96589.31;5091266;28;20047;-72
2023/05/08 02:24:55;;;;;;;11.88;8.57;;;;;;;12.22;73.99;96591.91;5090524;28;20052;-71
2023/05/08 02:27:23;;;;;;;12.18;8.10;;;;;;;12.26;74.70;96597.50;5091333;28;20155;-72
2023/05/08 02:29:51;;;;;;;11.00;7.57;;;;;;;12.10;73.91;96589.00;5091392;28;20044;-72
2023/05/08 02:32:19;;;;;;;16.23;8.27;;;;;;;12.07;74.98;96595.13;5090945;28;20044;-72
2023/05/08 02:34:48;;;;;;;10.95;7.97;;;;;;;12.11;75.05;96601.56;5091171;28;20494;-72
2023/05/08 02:37:17;;;;;;;10.32;8.30;;;;;;;12.07;74.58;96586.94;5091112;28;20051;-71
2023/05/08 02:39:45;;;;;;;11.57;8.00;;;;;;;12.01;74.72;96591.75;5091605;28;20043;-71
2023/05/08 02:42:12;;;;;;;10.50;8.15;;;;;;;12.04;74.59;96593.03;5090697;28;20055;-72
2023/05/08 02:44:38;;;;;;;12.75;7.88;;;;;;;12.05;74.69;96599.28;5091375;28;20052;-72
2023/05/08 02:47:15;;;;;;;12.80;8.02;;;;;;;12.13;76.00;96596.56;5091150;28;20047;-72
2023/05/08 02:49:48;;;;;;;10.30;8.18;;;;;;;11.94;73.88;96607.00;5091149;28;20043;-72
2023/05/08 02:52:22;;;;;;;9.77;7.13;;;;;;;12.13;74.45;96606.69;5090775;28;20044;-72
2023/05/08 02:54:56;;;;;;;12.30;8.63;;;;;;;12.03;74.46;96605.06;5090980;28;20695;-71
2023/05/08 02:57:27;;;;;;;;;;;;;;;11.99;74.73;96604.09;5091037;28;20566;-71
2023/05/08 02:59:59;;;;;;;10.80;7.75;;;;;;;11.94;75.19;96604.25;5090682;28;20393;-71
2023/05/08 03:02:32;;;;;;;10.85;7.93;;;;;;;11.95;75.38;96614.06;5090793;28;20051;-72
2023/05/08 03:05:03;;;;;;;;;;;;;;;11.87;75.47;96606.69;5091655;28;20074;-72
2023/05/08 03:07:32;;;;;;;10.60;8.13;;;;;;;11.81;75.56;96607.94;5090668;28;19927;-72
2023/05/08 03:10:03;;;;;;;10.63;8.10;;;;;;;11.97;76.19;96606.38;5082931;28;20058;-72
2023/05/08 03:12:33;;;;;;;11.82;8.65;;;;;;;11.87;76.03;96610.22;5090639;28;20051;-71
2023/05/08 03:15:04;;;;;;;11.73;8.27;;;;;;;11.75;75.93;96610.81;5089424;28;20044;-72
2023/05/08 03:17:33;;;;;;;13.07;8.70;;;;;;;11.75;76.46;96607.28;5090615;28;20036;-71
2023/05/08 03:20:04;;;;;;;10.20;7.75;;;;;;;11.85;76.29;96608.91;5082709;28;20054;-73
2023/05/08 03:22:35;;;;;;;11.65;8.57;;;;;;;11.73;76.23;96610.31;5089429;28;20075;-71
2023/05/08 03:25:04;;;;;;;11.48;8.18;;;;;;;11.77;76.54;96616.75;5081986;28;20409;-73
2023/05/08 03:27:31;;;;;;;11.00;8.52;;;;;;;11.70;76.93;96608.25;5090243;28;20075;-72
2023/05/08 03:30:02;;;;;;;10.25;7.82;;;;;;;11.68;77.28;96610.47;5089256;28;20040;-73
2023/05/08 03:32:29;;;;;;;11.95;8.02;;;;;;;11.66;77.29;96601.81;5088833;28;20487;-72
2023/05/08 03:34:59;;;;;;;16.95;8.85;;;;;;;11.68;76.97;96617.84;5088386;28;20384;-73
2023/05/08 03:37:26;;;;;;;11.70;8.10;;;;;;;11.66;77.29;96615.44;5089884;28;20047;-73
2023/05/08 03:39:55;;;;;;;11.02;7.95;;;;;;;11.55;77.60;96619.59;5090480;28;20056;-72
2023/05/08 03:42:23;;;;;;;9.95;7.75;;;;;;;11.51;77.79;96618.63;5089943;28;20048;-72
2023/05/08 03:44:51;;;;;;;11.40;8.30;;;;;;;11.57;77.50;96620.06;5090331;28;20054;-73
2023/05/08 03:47:18;;;;;;;11.30;8.25;;;;;;;11.62;77.33;96614.47;5089482;28;20518;-73
2023/05/08 03:49:45;;;;;;;12.23;8.45;;;;;;;11.53;77.24;96616.38;5089938;28;20047;-72
2023/05/08 03:52:12;;;;;;;11.68;8.48;;;;;;;11.48;77.41;96621.97;5089733;28;20075;-73
2023/05/08 03:54:39;;;;;;;13.27;7.85;;;;;;;11.47;77.66;96623.09;5089977;28;20411;-73
2023/05/08 03:57:07;;;;;;;13.35;8.57;;;;;;;11.35;78.65;96625.63;5089793;28;20513;-72
2023/05/08 03:59:42;;;;;;;12.90;8.45;;;;;;;11.37;78.56;96626.09;5090299;28;20062;-73
2023/05/08 04:02:17;;;;;;;13.20;8.90;;;;;;;11.27;78.80;96629.13;5089707;28;20487;-73
2023/05/08 04:04:47;;;;;;;15.13;9.57;;;;;;;11.30;79.44;96631.22;5090026;28;20044;-73
2023/05/08 04:07:19;;;;;;;13.00;7.85;;;;;;;11.35;78.61;96631.09;5089632;28;20047;-73
2023/05/08 04:09:55;;;;;;;12.05;8.82;;;;;;;11.35;78.39;96633.81;5090010;28;20043;-73
2023/05/08 04:12:33;;;;;;;12.35;9.13;;;;;;;11.24;78.14;96642.28;5089489;28;20052;-73
2023/05/08 04:15:06;;;;;;;12.75;9.57;;;;;;;11.17;78.77;96638.38;5081877;28;20044;-72
2023/05/08 04:17:40;;;;;;;11.43;8.63;;;;;;;11.13;78.56;96643.69;5088721;28;20040;-73
2023/05/08 04:20:08;;;;;;;12.32;8.32;;;;;;;11.09;80.29;96648.13;5082006;28;20040;-73
2023/05/08 04:22:38;;;;;;;13.95;8.60;;;;;;;11.09;79.12;96652.78;5089983;28;20040;-73
2023/05/08 04:25:07;;;;;;;16.85;8.75;;;;;;;10.93;79.07;96649.66;5088513;28;20495;-74
2023/05/08 04:27:36;;;;;;;15.18;9.10;;;;;;;10.97;80.60;96656.09;5088826;28;20044;-72
2023/05/08 04:30:02;;;;;;;11.38;8.45;;;;;;;11.02;79.45;96647.81;5089361;28;20048;-74
2023/05/08 04:32:30;;;;;;;12.05;8.65;;;;;;;11.12;79.04;96650.25;5090078;28;20571;-72
2023/05/08 04:34:56;;;;;;;13.77;8.98;;;;;;;11.20;79.04;96659.56;5089610;28;20406;-72
2023/05/08 04:37:25;;;;;;;12.48;8.05;;;;;;;11.22;78.83;96658.16;5092834;28;20049;-73
2023/05/08 04:39:52;;;;;;;11.77;8.43;;;;;;;11.16;79.32;96659.38;5095960;28;20089;-73
2023/05/08 04:42:18;;;;;;;12.07;9.02;;;;;;;11.06;79.12;96664.31;5095794;28;20526;-73
2023/05/08 04:44:47;;;;;;;14.52;8.95;;;;;;;11.09;78.73;96669.16;5096205;28;20043;-72
2023/05/08 04:47:13;;;;;;;13.63;8.88;;;;;;;11.12;78.80;96671.22;5092561;28;20044;-72
2023/05/08 04:49:39;;;;;;;11.95;8.60;;;;;;;11.21;78.24;96672.88;5097417;28;20048;-73
2023/05/08 04:52:06;;;;;;;12.23;8.73;;;;;;;11.31;78.57;96671.81;5097003;28;20044;-73
2023/05/08 04:54:33;;;;;;;11.18;8.50;;;;;;;11.23;78.69;96676.13;5097066;28;20105;-72
2023/05/08 04:56:59;;;;;;;13.82;8.57;;;;;;;11.29;78.33;96673.25;5094355;28;20036;-72
2023/05/08 04:59:26;;;;;;;11.70;8.05;;;;;;;11.23;78.06;96675.31;5095062;28;20047;-72
2023/05/08 05:01:53;;;;;;;10.75;7.90;;;;;;;11.36;77.67;96673.59;5094417;28;20055;-71
2023/05/08 05:04:21;;;;;;;14.43;8.90;;;;;;;11.22;76.69;96685.41;5094840;28;20040;-71
2023/05/08 05:06:47;;;;;;;11.57;8.68;;;;;;;11.11;77.91;96684.06;5094344;28;20040;-72
2023/05/08 05:09:14;;;;;;;10.18;7.97;;;;;;;11.12;77.67;96693.03;5093950;28;20043;-71
2023/05/08 05:11:41;;;;;;;15.40;8.93;;;;;;;11.07;77.37;96688.53;5094236;28;20044;-71
2023/05/08 05:14:07;;;;;;;11.60;8.07;;;;;;;11.09;77.41;96689.03;5093206;28;20044;-73
2023/05/08 05:16:34;;;;;;;12.82;8.85;;;;;;;11.10;77.51;96693.34;5093310;28;20040;-71
2023/05/08 05:19:02;;;;;;;12.35;9.00;;;;;;;11.23;78.00;96689.75;5093568;28;20056;-71
2023/05/08 05:21:28;;;;;;;13.55;9.20;;;;;;;11.13;78.03;96703.63;5093874;28;20051;-72
2023/05/08 05:23:55;;;;;;;14.82;8.73;;;;;;;10.99;77.77;96711.09;5094610;28;20047;-71
2023/05/08 05:26:22;;;;;;;12.10;8.02;;;;;;;11.10;77.47;96704.25;5093605;28;20533;-72
2023/05/08 05:28:48;;;;;;;12.38;8.77;;;;;;;11.15;77.93;96709.56;5094457;28;20043;-71
2023/05/08 05:31:15;;;;;;;13.90;9.07;;;;;;;11.08;78.18;96711.94;5093871;28;20047;-71
2023/05/08 05:33:42;;;;;;;13.20;9.00;;;;;;;11.10;78.58;96714.34;5094977;28;20113;-73
2023/05/08 05:36:10;;;;;;;12.15;8.70;;;;;;;11.27;78.65;96711.72;5097324;28;20094;-74
2023/05/08 05:38:36;;;;;;;12.02;8.40;;;;;;;11.36;78.39;96709.03;5099087;28;20486;-72
2023/05/08 05:41:03;;;;;;;12.40;8.38;;;;;;;11.39;77.91;96705.69;5099740;28;20109;-72
2023/05/08 05:43:29;;;;;;;14.02;9.63;;;;;;;11.37;77.78;96713.34;5099851;28;20047;-72
2023/05/08 05:45:56;;;;;;;14.48;8.77;;;;;;;11.39;76.60;96722.06;5098477;28;20040;-72
2023/05/08 05:48:22;;;;;;;13.93;9.30;;;;;;;11.38;76.59;96718.53;5098321;28;20525;-72
2023/05/08 05:50:49;;;;;;;13.23;8.60;;;;;;;11.46;77.00;96722.38;5099302;28;20036;-72
2023/05/08 05:53:16;;;;;;;13.35;8.75;;;;;;;11.45;76.06;96712.59;5099171;28;20046;-72
2023/05/08 05:55:43;;;;;;;12.23;9.23;;;;;;;11.52;76.49;96721.13;5097823;28;20052;-72
2023/05/08 05:58:09;;;;;;;18.80;9.27;;;;;;;11.49;77.35;96717.13;5096439;28;20574;-72
2023/05/08 06:00:36;;;;;;;14.95;9.50;;;;;;;11.40;75.99;96723.66;5100076;28;20043;-72
2023/05/08 06:03:03;;;;;;;14.95;9.63;;;;;;;11.38;74.39;96732.16;5098115;28;20036;-72
2023/05/08 06:05:29;;;;;;;14.30;9.60;;;;;;;11.34;74.45;96730.38;5097009;28;20047;-72
2023/05/08 06:07:56;;;;;;;14.27;9.73;;;;;;;11.32;74.39;96722.47;5099602;28;20555;-72
2023/05/08 06:10:24;;;;;;;12.98;9.43;;;;;;;11.20;74.30;96736.69;5098449;28;20043;-73
2023/05/08 06:12:51;;;;;;;12.23;8.80;;;;;;;11.20;74.34;96736.69;5097457;28;20058;-71
2023/05/08 06:15:17;;;;;;;16.05;10.10;;;;;;;11.07;73.86;96744.97;5091574;28;20040;-73
2023/05/08 06:17:44;;;;;;;13.10;9.48;;;;;;;10.88;74.11;96742.44;5089280;28;20048;-72
2023/05/08 06:20:11;;;;;;;15.25;9.75;;;;;;;10.86;75.32;96739.22;5092407;28;20052;-72
2023/05/08 06:22:38;;;;;;;13.82;9.75;;;;;;;10.71;75.41;96735.75;5092730;28;20403;-74
2023/05/08 06:25:07;;;;;;;15.38;10.65;;;;;;;10.73;75.81;96732.72;5090870;28;20048;-73
2023/05/08 06:27:35;;;;;;;16.38;10.10;;;;;;;10.52;76.36;96737.84;5091670;28;20036;-72
2023/05/08 06:30:02;;;;;;;16.10;9.68;;;;;;;10.46;76.28;96739.06;5091924;28;20523;-72
2023/05/08 06:32:28;;;;;;;16.27;11.07;;;;;;;10.43;76.23;96747.84;5091565;28;20445;-72
2023/05/08 06:34:55;;;;;;;16.77;10.48;;;;;;;10.37;76.41;96751.78;5091718;28;20044;-72
2023/05/08 06:37:22;;;;;;;14.95;10.07;;;;;;;10.35;77.23;96745.88;5091387;28;20048;-72
2023/05/08 06:39:48;;;;;;;15.68;11.07;;;;;;;10.33;78.12;96745.34;5091754;28;20063;-73
2023/05/08 06:42:14;;;;;;;17.92;10.95;;;;;;;10.50;76.97;96753.69;5090848;28;20043;-71
2023/05/08 06:44:42;;;;;;;14.55;10.32;;;;;;;10.68;77.82;96749.97;5091648;28;20036;-72
2023/05/08 06:47:09;;;;;;;14.13;9.98;;;;;;;10.82;78.04;96749.94;5087543;28;20048;-72
2023/05/08 06:49:35;;;;;;;16.60;10.95;;;;;;;11.03;79.22;96750.22;5091427;28;20040;-75
2023/05/08 06:52:02;;;;;;;16.17;11.18;;;;;;;11.08;78.03;96744.66;5090516;28;20051;-74
2023/05/08 06:54:29;;;;;;;16.08;11.00;;;;;;;10.97;76.32;96755.00;5091011;28;20050;-72
2023/05/08 06:56:55;;;;;;;15.73;10.95;;;;;;;10.94;75.38;96755.63;5091238;28;20059;-74
2023/05/08 06:59:23;;;;;;;14.60;10.73;;;;;;;11.04;75.73;96762.72;5090782;28;20055;-71
2023/05/08 07:01:50;;;;;;;17.00;10.77;;;;;;;11.11;74.86;96760.38;5091041;28;20050;-72
2023/05/08 07:04:17;;;;;;;16.33;10.57;;;;;;;11.19;75.02;96762.34;5091144;28;20047;-72
2023/05/08 07:06:44;;;;;;;19.52;10.95;;;;;;;11.30;75.95;96762.09;5090896;28;20047;-72
2023/05/08 07:09:10;;;;;;;15.00;11.10;;;;;;;11.13;74.30;96774.50;5082175;28;20047;-72
2023/05/08 07:11:37;;;;;;;17.75;11.32;;;;;;;11.08;74.94;96765.66;5091278;28;20399;-72
2023/05/08 07:14:03;;;;;;;16.48;11.30;;;;;;;11.22;74.83;96767.19;5090448;28;20048;-73
2023/05/08 07:16:30;;;;;;;16.55;10.95;;;;;;;11.09;75.18;96768.06;5085653;28;20064;-72
2023/05/08 07:18:58;;;;;;;19.67;12.13;;;;;;;11.35;75.22;96778.31;5090757;28;20055;-71
2023/05/08 07:21:24;;;;;;;16.00;11.40;;;;;;;11.32;74.94;96773.47;5090265;28;20047;-72
2023/05/08 07:23:52;;;;;;;15.32;11.13;;;;;;;11.55;75.58;96774.25;5090470;28;20052;-71
2023/05/08 07:26:19;;;;;;;19.45;11.32;;;;;;;11.61;75.00;96773.78;5090376;28;20044;-72
2023/05/08 07:28:45;;;;;;;16.02;11.35;;;;;;;11.83;74.73;96763.97;5090745;28;20040;-72
2023/05/08 07:31:11;;;;;;;14.95;11.38;;;;;;;11.80;73.63;96765.38;5089643;28;20055;-74
2023/05/08 07:33:38;;;;;;;18.65;11.63;;;;;;;11.65;73.48;96763.88;5090526;28;20043;-74
2023/05/08 07:36:06;;;;;;;16.48;11.27;;;;;;;11.70;75.85;96771.13;5089991;28;20525;-74
2023/05/08 07:38:33;;;;;;;14.93;10.73;;;;;;;11.99;75.63;96759.66;5090439;28;20051;-72
2023/05/08 07:41:00;;;;;;;16.65;11.30;;;;;;;12.21;73.58;96770.47;5090356;28;20047;-73
2023/05/08 07:43:27;;;;;;;16.35;11.52;;;;;;;12.07;73.19;96758.91;5090122;28;20049;-72
2023/05/08 07:45:53;;;;;;;18.95;12.00;;;;;;;12.13;72.88;96765.81;5084838;28;20048;-73
2023/05/08 07:48:20;;;;;;;19.90;11.77;;;;;;;12.17;73.09;96766.78;5089929;28;20051;-72
2023/05/08 07:50:48;;;;;;;16.83;11.40;;;;;;;12.19;72.43;96775.47;5090255;28;20093;-71
2023/05/08 07:53:16;;;;;;;17.35;11.38;;;;;;;12.15;72.03;96777.22;5089813;28;20042;-72
2023/05/08 07:55:43;;;;;;;16.05;11.88;;;;;;;12.26;73.92;96773.06;5090290;28;20044;-71
2023/05/08 07:58:09;;;;;;;19.38;11.88;;;;;;;12.17;72.34;96774.19;5089761;28;20040;-72
2023/05/08 08:00:36;;;;;;;18.13;12.02;;;;;;;12.03;72.50;96777.03;5090188;28;20044;-72
2023/05/08 08:03:03;;;;;;;19.30;13.10;;;;;;;12.11;72.37;96769.97;5089608;28;20154;-73
2023/05/08 08:05:29;;;;;;;19.73;11.82;;;;;;;11.96;72.44;96771.25;5090166;28;20535;-73
2023/05/08 08:07:56;;;;;;;19.38;12.80;;;;;;;12.01;72.79;96769.16;5089839;28;20044;-72
2023/05/08 08:10:24;;;;;;;18.42;12.70;;;;;;;12.07;73.78;96771.75;5089458;28;20052;-72
2023/05/08 08:12:50;;;;;;;17.95;12.23;;;;;;;11.99;73.29;96773.31;5091447;28;20050;-72
2023/05/08 08:15:16;;;;;;;17.17;11.52;;;;;;;12.08;72.84;96770.63;5090409;28;20051;-72
2023/05/08 08:17:43;;;;;;;18.08;12.43;;;;;;;12.32;75.00;96775.63;5088630;28;20040;-73
2023/05/08 08:20:10;;;;;;;19.27;12.45;;;;;;;12.42;72.19;96780.78;5091211;28;20044;-72
2023/05/08 08:22:37;;;;;;;18.70;12.45;;;;;;;12.53;71.18;96768.47;5091402;28;20047;-72
2023/05/08 08:25:04;;;;;;;21.10;12.25;;;;;;;12.73;71.18;96778.72;5091485;28;20048;-72
2023/05/08 08:27:32;;;;;;;17.13;11.50;;;;;;;13.18;71.29;96775.66;5092659;28;20051;-72
2023/05/08 08:29:59;;;;;;;15.82;11.85;;;;;;;13.35;69.77;96774.84;5093144;28;20059;-72
2023/05/08 08:32:25;;;;;;;16.13;12.00;;;;;;;13.40;67.79;96776.59;5091649;28;20048;-72
2023/05/08 08:34:51;;;;;;;17.50;11.90;;;;;;;13.78;67.81;96772.00;5092601;28;20602;-72
2023/05/08 08:37:18;;;;;;;18.85;11.45;;;;;;;13.73;67.79;96776.81;5092982;28;20040;-72
2023/05/08 08:39:45;;;;;;;16.85;12.18;;;;;;;13.60;67.83;96775.91;5092880;28;20044;-72
2023/05/08 08:42:11;;;;;;;16.60;11.98;;;;;;;13.69;68.37;96773.94;5092248;28;20044;-72
2023/05/08 08:44:39;;;;;;;16.65;11.65;;;;;;;13.83;67.83;96771.81;5094800;28;20047;-72
2023/05/08 08:47:07;;;;;;;17.63;12.07;;;;;;;13.96;67.92;96771.91;5087513;28;20048;-71
2023/05/08 08:49:35;;;;;;;18.42;11.20;;;;;;;13.97;68.30;96770.78;5089773;28;20110;-71
2023/05/08 08:52:05;;;;;;;17.23;11.75;;;;;;;13.72;66.81;96770.53;5089700;28;20048;-71
2023/05/08 08:54:35;;;;;;;17.02;12.60;;;;;;;13.63;68.44;96775.28;5089843;28;20436;-71
2023/05/08 08:57:05;;;;;;;16.65;12.15;;;;;;;13.57;67.75;96766.44;5089939;28;20098;-72
2023/05/08 08:59:32;;;;;;;17.45;11.52;;;;;;;13.76;70.30;96763.28;5089597;28;20081;-72
2023/05/08 09:02:09;;;;;;;16.88;12.40;;;;;;;13.83;69.87;96760.03;5089088;28;20051;-71
2023/05/08 09:04:35;;;;;;;20.25;12.70;;;;;;;13.91;68.57;96772.09;5089590;28;20040;-72
2023/05/08 09:07:04;;;;;;;21.98;14.15;;;;;;;13.81;68.37;96779.53;5089098;28;20048;-73
2023/05/08 09:09:32;;;;;;;20.42;13.32;;;;;;;13.86;68.20;96772.28;5089370;28;20074;-72
2023/05/08 09:11:59;;;;;;;20.10;12.32;;;;;;;13.87;69.55;96774.69;5090187;28;20133;-71
2023/05/08 09:14:25;;;;;;;18.25;13.13;;;;;;;13.82;67.73;96777.59;5089051;28;20036;-71
2023/05/08 09:16:53;;;;;;;17.17;11.93;;;;;;;13.71;68.69;96785.38;5083600;28;20055;-71
2023/05/08 09:19:21;;;;;;;15.23;11.95;;;;;;;13.83;67.41;96780.03;5088804;28;20036;-72
2023/05/08 09:21:48;;;;;;;19.13;12.35;;;;;;;13.89;67.92;96775.16;5089252;28;20055;-72
2023/05/08 09:24:15;;;;;;;16.90;12.25;;;;;;;13.96;68.58;96769.97;5091312;28;20040;-72
2023/05/08 09:26:42;;;;;;;17.98;12.85;;;;;;;13.93;68.53;96772.56;5093548;28;20051;-72
2023/05/08 09:29:12;;;;;;;17.42;12.77;;;;;;;14.17;68.88;96772.75;5092572;28;20044;-73
2023/05/08 09:31:41;;;;;;;18.13;12.48;;;;;;;14.25;68.71;96780.13;5093055;28;20461;-71
2023/05/08 09:34:08;;;;;;;18.95;13.60;;;;;;;14.45;67.74;96773.06;5092432;28;20521;-73
2023/05/08 09:36:37;;;;;;;16.55;12.10;;;;;;;14.66;67.28;96773.09;5093093;28;20127;-72
2023/05/08 09:39:04;;;;;;;17.77;12.73;;;;;;;14.99;67.13;96764.16;5092352;28;20046;-72
2023/05/08 09:41:30;;;;;;;16.83;11.70;;;;;;;15.12;65.36;96769.34;5092825;28;20122;-72
2023/05/08 09:44:02;;;;;;;18.23;12.50;;;;;;;15.13;65.46;96770.13;5092323;28;20055;-72
2023/05/08 09:46:28;;;;;;;17.42;12.60;;;;;;;15.23;65.99;96772.47;5092385;28;20048;-72
2023/05/08 09:48:57;;;;;;;18.27;12.63;;;;;;;15.43;64.70;96772.75;5092544;28;20042;-72
2023/05/08 09:51:25;;;;;;;15.93;11.30;;;;;;;15.54;63.87;96773.91;5092417;28;20051;-72
2023/05/08 09:53:54;;;;;;;15.13;12.35;;;;;;;15.43;63.06;96783.72;5092455;28;20048;-71
2023/05/08 09:56:31;;;;;;;15.60;11.98;;;;;;;15.49;63.96;96782.38;5092117;28;20047;-72
2023/05/08 09:58:58;;;;;;;17.10;12.60;;;;;;;15.35;64.90;96778.00;5092371;28;20044;-72
2023/05/08 10:01:29;;;;;;;18.75;13.10;;;;;;;15.09;64.46;96780.19;5091983;28;20126;-72
2023/05/08 10:03:55;;;;;;;17.23;12.65;;;;;;;15.35;66.20;96783.50;5092137;28;20047;-72
2023/05/08 10:06:22;;;;;;;17.08;12.48;;;;;;;15.51;65.51;96774.63;5091919;28;20044;-71
2023/05/08 10:08:48;;;;;;;17.88;12.68;;;;;;;15.68;64.29;96774.44;5092335;28;20040;-72
2023/05/08 10:11:18;;;;;;;16.90;12.43;;;;;;;15.64;62.85;96777.06;5091740;28;20625;-72
2023/05/08 10:13:45;;;;;;;18.10;12.75;;;;;;;15.62;63.26;96778.53;5092161;28;20043;-72
2023/05/08 10:16:15;;;;;;;17.50;12.68;;;;;;;15.63;63.20;96780.16;5084975;28;20040;-71
2023/05/08 10:18:47;;;;;;;17.60;12.45;;;;;;;15.60;62.99;96775.31;5092040;28;20056;-72
2023/05/08 10:21:14;;;;;;;16.45;12.63;;;;;;;15.58;63.43;96769.38;5091616;28;20052;-71
2023/05/08 10:23:42;;;;;;;17.85;13.25;;;;;;;15.58;64.67;96775.66;5092402;28;20121;-72
2023/05/08 10:26:12;;;;;;;17.40;13.45;;;;;;;15.55;65.36;96781.00;5092341;28;20048;-73
2023/05/08 10:28:44;;;;;;;18.92;13.68;;;;;;;15.38;65.08;96777.31;5092897;28;20036;-72
2023/05/08 10:31:12;;;;;;;16.65;13.18;;;;;;;15.28;63.37;96769.50;5091618;28;20059;-72
2023/05/08 10:33:40;;;;;;;18.50;12.77;;;;;;;15.27;64.81;96778.88;5091903;28;20040;-72
2023/05/08 10:36:09;;;;;;;17.38;13.30;;;;;;;15.27;65.27;96770.66;5090546;28;20040;-72
2023/05/08 10:38:37;;;;;;;20.40;13.20;;;;;;;15.57;65.13;96773.25;5091609;28;20101;-71
2023/05/08 10:41:03;;;;;;;20.40;13.82;;;;;;;15.58;64.85;96763.88;5091119;28;20044;-72
2023/05/08 10:43:30;;;;;;;16.48;13.07;;;;;;;15.62;64.49;96765.59;5091392;28;20044;-72
2023/05/08 10:46:04;;;;;;;19.70;13.45;;;;;;;15.40;63.90;96758.59;5091534;28;20097;-71
2023/05/08 10:48:39;;;;;;;17.85;13.30;;;;;;;15.53;65.76;96762.16;5091362;28;20059;-71
2023/05/08 10:51:10;;;;;;;21.55;13.23;;;;;;;15.80;64.77;96760.72;5090956;28;20075;-71
2023/05/08 10:53:42;;;;;;;17.08;13.75;;;;;;;15.94;65.19;96754.91;5091267;28;20410;-71
2023/05/08 10:56:08;;;;;;;17.00;13.18;;;;;;;15.99;64.78;96756.63;5091006;28;20047;-72
2023/05/08 10:58:38;;;;;;;16.70;12.68;;;;;;;16.04;62.62;96748.97;5091207;28;20503;-72
2023/05/08 11:01:12;;;;;;;19.30;14.50;;;;;;;16.07;64.80;96741.97;5090684;28;20048;-74
2023/05/08 11:03:41;;;;;;;18.75;13.43;;;;;;;16.09;64.07;96739.69;5091298;28;20044;-72
2023/05/08 11:06:08;;;;;;;16.35;12.75;;;;;;;15.98;63.39;96744.06;5090779;28;20060;-72
2023/05/08 11:08:45;;;;;;;17.20;12.93;;;;;;;16.16;63.59;96729.72;5090124;28;20044;-72
2023/05/08 11:11:17;;;;;;;17.88;13.57;;;;;;;16.04;62.39;96735.22;5090709;28;20707;-73
2023/05/08 11:13:48;;;;;;;17.40;13.45;;;;;;;16.23;64.76;96729.13;5090958;28;20044;-72
2023/05/08 11:16:16;;;;;;;16.77;13.27;;;;;;;16.09;61.48;96732.25;5083131;28;20052;-73
2023/05/08 11:19:16;;;;;;;17.98;13.38;;;;;;;16.08;63.61;96738.09;5090841;28;20051;-73
2023/05/08 11:22:16;;;;;;;16.60;12.80;;;;;;;16.16;63.10;96739.91;5090609;28;20036;-73
2023/05/08 11:24:52;;;;;;;18.08;13.50;;;;;;;16.33;63.62;96745.16;5090463;28;20048;-73
2023/05/08 11:27:32;;;;;;;18.13;13.60;;;;;;;16.31;62.80;96747.44;5090512;28;20593;-71
2023/05/08 11:30:34;;;;;;;16.63;12.57;;;;;;;16.41;63.22;96738.75;5090856;28;20040;-72